createdAt,value
2018-06-19T00:00:34.748Z,5.53
2018-06-19T00:01:41.275Z,4.30
2018-06-19T00:02:46.281Z,5.10
2018-06-19T00:03:53.746Z,4.62
2018-06-19T00:04:58.454Z,4.60
2018-06-19T00:06:04.182Z,5.10
2018-06-19T00:07:08.842Z,4.17
2018-06-19T00:08:13.360Z,4.67
2018-06-19T00:09:17.837Z,4.53
2018-06-19T00:10:22.898Z,4.40
2018-06-19T00:11:27.667Z,5.30
2018-06-19T00:12:32.977Z,4.47
2018-06-19T00:13:38.286Z,4.55
2018-06-19T00:14:42.704Z,6.83
2018-06-19T00:15:47.087Z,5.85
2018-06-19T00:16:52.268Z,5.35
2018-06-19T00:18:02.787Z,5.40
2018-06-19T00:19:08.162Z,4.53
2018-06-19T00:20:14.262Z,4.72
2018-06-19T00:21:27.815Z,4.55
2018-06-19T00:22:32.587Z,5.20
2018-06-19T00:23:36.890Z,5.40
2018-06-19T00:24:41.976Z,5.03
2018-06-19T00:25:46.289Z,4.62
2018-06-19T00:26:50.704Z,4.80
2018-06-19T00:27:55.102Z,5.08
2018-06-19T00:28:59.728Z,4.80
2018-06-19T00:30:05.267Z,5.33
2018-06-19T00:31:09.748Z,4.55
2018-06-19T00:32:14.868Z,5.22
2018-06-19T00:33:19.215Z,4.75
2018-06-19T00:34:24.758Z,5.30
2018-06-19T00:35:29.330Z,4.70
2018-06-19T00:36:33.825Z,5.47
2018-06-19T00:37:40.045Z,5.35
2018-06-19T00:38:46.167Z,4.95
2018-06-19T00:39:51.418Z,5.20
2018-06-19T00:40:55.819Z,5.15
2018-06-19T00:42:00.128Z,4.87
2018-06-19T00:43:03.972Z,5.03
2018-06-19T00:44:09.061Z,5.08
2018-06-19T00:45:13.519Z,4.40
2018-06-19T00:46:18.857Z,5.15
2018-06-19T00:47:23.827Z,4.80
2018-06-19T00:48:28.176Z,4.75
2018-06-19T00:49:33.751Z,4.53
2018-06-19T00:50:38.260Z,4.70
2018-06-19T00:51:42.585Z,4.50
2018-06-19T00:52:47.184Z,4.30
2018-06-19T00:53:52.193Z,5.10
2018-06-19T00:54:56.489Z,5.80
2018-06-19T00:56:11.843Z,4.20
2018-06-19T00:57:16.113Z,4.30
2018-06-19T00:58:20.786Z,5.28
2018-06-19T00:59:25.298Z,4.37
2018-06-19T01:00:29.714Z,4.47
2018-06-19T01:01:34.198Z,4.22
2018-06-19T01:02:39.590Z,4.75
2018-06-19T01:03:44.228Z,4.45
2018-06-19T01:04:48.671Z,4.72
2018-06-19T01:05:53.024Z,4.37
2018-06-19T01:06:57.339Z,3.83
2018-06-19T01:08:01.826Z,4.30
2018-06-19T01:09:09.005Z,3.92
2018-06-19T01:10:13.723Z,4.08
2018-06-19T01:11:18.442Z,4.25
2018-06-19T01:12:22.870Z,4.78
2018-06-19T01:13:27.494Z,3.98
2018-06-19T01:14:32.012Z,3.98
2018-06-19T01:15:37.526Z,4.20
2018-06-19T01:16:41.871Z,4.17
2018-06-19T01:17:46.211Z,4.00
2018-06-19T01:18:50.477Z,3.77
2018-06-19T01:19:54.890Z,4.05
2018-06-19T01:20:59.251Z,3.60
2018-06-19T01:22:03.932Z,4.12
2018-06-19T01:23:08.358Z,4.60
2018-06-19T01:24:12.768Z,3.87
2018-06-19T01:25:17.271Z,3.80
2018-06-19T01:26:21.681Z,4.40
2018-06-19T01:27:26.030Z,3.70
2018-06-19T01:28:30.594Z,4.50
2018-06-19T01:29:35.140Z,4.22
2018-06-19T01:30:39.575Z,4.10
2018-06-19T01:31:43.888Z,4.03
2018-06-19T01:32:48.557Z,3.55
2018-06-19T01:33:52.925Z,4.10
2018-06-19T01:34:57.266Z,4.22
2018-06-19T01:36:01.604Z,4.28
2018-06-19T01:37:06.007Z,4.35
2018-06-19T01:38:12.931Z,4.33
2018-06-19T01:39:17.633Z,4.05
2018-06-19T01:40:22.043Z,4.45
2018-06-19T01:41:26.388Z,4.03
2018-06-19T01:42:30.786Z,4.70
2018-06-19T01:45:42.051Z,4.30
2018-06-19T01:46:46.452Z,5.00
2018-06-19T01:47:51.958Z,4.25
2018-06-19T01:48:56.353Z,3.90
2018-06-19T01:50:01.765Z,4.45
2018-06-19T01:51:06.352Z,4.05
2018-06-19T01:52:10.657Z,4.30
2018-06-19T01:53:15.137Z,4.25
2018-06-19T01:54:19.606Z,5.10
2018-06-19T01:55:23.943Z,4.00
2018-06-19T01:56:30.074Z,5.08
2018-06-19T01:57:37.463Z,4.95
2018-06-19T02:00:38.253Z,4.40
2018-06-19T02:01:42.797Z,5.65
2018-06-19T02:02:47.407Z,4.47
2018-06-19T02:03:52.679Z,4.97
2018-06-19T02:04:57.074Z,4.85
2018-06-19T02:06:01.369Z,4.72
2018-06-19T02:07:06.042Z,5.55
2018-06-19T02:08:10.470Z,5.90
2018-06-19T02:09:14.881Z,5.62
2018-06-19T02:10:19.281Z,4.78
2018-06-19T02:11:23.919Z,5.65
2018-06-19T02:12:28.233Z,5.50
2018-06-19T02:13:32.575Z,5.37
2018-06-19T02:14:37.262Z,5.35
2018-06-19T02:15:41.925Z,5.15
2018-06-19T02:16:46.408Z,5.85
2018-06-19T02:17:51.435Z,6.20
2018-06-19T02:18:55.967Z,4.95
2018-06-19T02:20:09.886Z,5.25
2018-06-19T02:21:22.887Z,5.87
2018-06-19T02:22:27.223Z,5.90
2018-06-19T02:23:31.660Z,6.12
2018-06-19T02:24:36.078Z,6.22
2018-06-19T02:25:40.418Z,5.45
2018-06-19T02:26:44.963Z,7.45
2018-06-19T02:27:49.361Z,12.95
2018-06-19T02:28:53.680Z,5.53
2018-06-19T02:29:58.291Z,6.10
2018-06-19T02:31:02.612Z,6.55
2018-06-19T02:32:07.130Z,7.40
2018-06-19T02:33:11.435Z,6.30
2018-06-19T02:34:15.792Z,5.70
2018-06-19T02:35:20.375Z,6.10
2018-06-19T02:36:24.831Z,6.00
2018-06-19T02:37:29.479Z,6.42
2018-06-19T02:38:33.795Z,6.17
2018-06-19T02:39:38.259Z,6.05
2018-06-19T02:40:42.811Z,6.40
2018-06-19T02:41:47.326Z,6.55
2018-06-19T02:42:51.663Z,6.65
2018-06-19T02:43:56.408Z,5.47
2018-06-19T02:45:00.775Z,6.30
2018-06-19T02:46:05.215Z,5.65
2018-06-19T02:47:09.536Z,5.60
2018-06-19T02:48:13.902Z,6.17
2018-06-19T02:49:18.291Z,6.40
2018-06-19T02:50:22.859Z,5.85
2018-06-19T02:51:27.502Z,6.65
2018-06-19T02:52:31.826Z,5.40
2018-06-19T02:53:36.134Z,5.25
2018-06-19T02:54:40.803Z,6.25
2018-06-19T02:55:45.315Z,6.05
2018-06-19T02:56:49.767Z,5.90
2018-06-19T02:57:54.066Z,6.75
2018-06-19T02:58:58.701Z,5.65
2018-06-19T03:00:03.469Z,6.37
2018-06-19T03:01:08.104Z,6.40
2018-06-19T03:02:12.750Z,6.92
2018-06-19T03:03:17.038Z,6.10
2018-06-19T03:04:21.430Z,6.10
2018-06-19T03:05:25.770Z,6.30
2018-06-19T03:06:30.208Z,5.87
2018-06-19T03:07:34.588Z,6.55
2018-06-19T03:08:38.894Z,5.72
2018-06-19T03:09:43.476Z,6.05
2018-06-19T03:10:47.788Z,5.75
2018-06-19T03:11:52.139Z,6.12
2018-06-19T03:12:56.521Z,5.22
2018-06-19T03:14:00.913Z,5.78
2018-06-19T03:15:05.294Z,5.55
2018-06-19T03:16:09.874Z,5.83
2018-06-19T03:17:14.260Z,6.40
2018-06-19T03:18:18.986Z,5.10
2018-06-19T03:19:26.027Z,6.35
2018-06-19T03:20:30.485Z,5.62
2018-06-19T03:21:34.853Z,7.05
2018-06-19T03:22:39.367Z,6.62
2018-06-19T03:23:43.818Z,5.53
2018-06-19T03:24:48.451Z,6.62
2018-06-19T03:25:52.880Z,5.85
2018-06-19T03:26:57.198Z,5.42
2018-06-19T03:28:01.723Z,5.22
2018-06-19T03:29:06.071Z,5.78
2018-06-19T03:30:10.475Z,5.90
2018-06-19T03:31:14.842Z,5.40
2018-06-19T03:32:19.183Z,6.42
2018-06-19T03:33:23.611Z,6.60
2018-06-19T03:34:27.956Z,7.03
2018-06-19T03:35:33.196Z,6.50
2018-06-19T03:36:37.519Z,5.42
2018-06-19T03:37:41.806Z,7.40
2018-06-19T03:38:46.163Z,6.55
2018-06-19T03:39:50.479Z,6.30
2018-06-19T03:40:54.872Z,6.47
2018-06-19T03:41:59.258Z,6.12
2018-06-19T03:43:03.770Z,5.75
2018-06-19T03:44:08.983Z,6.00
2018-06-19T03:45:13.323Z,6.08
2018-06-19T03:46:17.646Z,5.30
2018-06-19T03:47:21.907Z,6.15
2018-06-19T03:48:26.331Z,5.85
2018-06-19T03:49:30.982Z,6.78
2018-06-19T03:50:35.322Z,6.58
2018-06-19T03:51:40.242Z,6.92
2018-06-19T03:52:45.539Z,6.40
2018-06-19T03:53:49.860Z,5.53
2018-06-19T03:54:54.305Z,5.65
2018-06-19T03:55:58.615Z,6.00
2018-06-19T03:57:03.034Z,5.75
2018-06-19T03:58:07.601Z,6.60
2018-06-19T03:59:11.948Z,5.30
2018-06-19T04:00:16.264Z,5.90
2018-06-19T04:01:20.690Z,6.40
2018-06-19T04:02:25.114Z,5.45
2018-06-19T04:03:29.496Z,5.50
2018-06-19T04:04:37.523Z,5.37
2018-06-19T04:05:43.532Z,6.05
2018-06-19T04:06:49.008Z,6.25
2018-06-19T04:07:55.187Z,6.90
2018-06-19T04:09:01.695Z,6.05
2018-06-19T04:10:06.886Z,4.95
2018-06-19T04:11:11.408Z,5.45
2018-06-19T04:12:17.397Z,5.75
2018-06-19T04:13:22.308Z,5.22
2018-06-19T04:14:27.391Z,6.20
2018-06-19T04:15:31.841Z,5.83
2018-06-19T04:16:36.662Z,6.47
2018-06-19T04:17:41.291Z,5.80
2018-06-19T04:18:45.944Z,6.58
2018-06-19T04:19:50.543Z,5.80
2018-06-19T04:20:55.112Z,6.15
2018-06-19T04:21:59.552Z,5.03
2018-06-19T04:23:03.931Z,5.65
2018-06-19T04:24:08.672Z,6.42
2018-06-19T04:25:13.223Z,5.10
2018-06-19T04:26:17.834Z,5.12
2018-06-19T04:27:22.881Z,5.58
2018-06-19T04:28:27.543Z,7.53
2018-06-19T04:29:32.600Z,6.22
2018-06-19T04:30:36.941Z,5.50
2018-06-19T04:31:41.334Z,5.95
2018-06-19T04:32:45.683Z,6.30
2018-06-19T04:33:50.237Z,5.08
2018-06-19T04:34:54.545Z,4.75
2018-06-19T04:35:58.896Z,5.03
2018-06-19T04:37:03.220Z,5.33
2018-06-19T04:38:07.535Z,4.45
2018-06-19T04:39:12.992Z,4.58
2018-06-19T04:40:17.421Z,4.67
2018-06-19T04:41:21.768Z,4.42
2018-06-19T04:42:26.416Z,4.42
2018-06-19T04:43:30.847Z,5.50
2018-06-19T04:44:35.258Z,5.00
2018-06-19T04:45:40.107Z,4.67
2018-06-19T04:46:44.569Z,4.95
2018-06-19T04:47:48.875Z,5.00
2018-06-19T04:48:53.442Z,4.97
2018-06-19T04:49:57.900Z,4.75
2018-06-19T04:51:02.291Z,4.78
2018-06-19T04:52:06.882Z,5.10
2018-06-19T04:53:12.238Z,4.58
2018-06-19T04:54:16.740Z,5.40
2018-06-19T04:55:21.491Z,4.62
2018-06-19T04:56:25.862Z,4.95
2018-06-19T04:57:30.563Z,4.70
2018-06-19T04:58:34.991Z,4.95
2018-06-19T04:59:39.452Z,4.83
2018-06-19T05:00:45.461Z,4.55
2018-06-19T05:01:49.879Z,4.60
2018-06-19T05:02:58.866Z,4.85
2018-06-19T05:04:03.430Z,4.42
2018-06-19T05:05:07.784Z,4.42
2018-06-19T05:06:12.213Z,4.80
2018-06-19T05:07:16.591Z,5.45
2018-06-19T05:08:20.897Z,7.00
2018-06-19T05:09:25.764Z,6.33
2018-06-19T05:10:30.386Z,5.60
2018-06-19T05:11:34.785Z,5.62
2018-06-19T05:12:39.142Z,4.90
2018-06-19T05:13:43.774Z,4.53
2018-06-19T05:14:51.662Z,4.47
2018-06-19T05:15:56.066Z,4.97
2018-06-19T05:17:00.634Z,4.90
2018-06-19T05:18:06.164Z,4.30
2018-06-19T05:19:12.233Z,5.10
2018-06-19T05:20:17.356Z,5.00
2018-06-19T05:21:21.855Z,4.37
2018-06-19T05:22:26.315Z,4.20
2018-06-19T05:23:30.850Z,4.25
2018-06-19T05:24:35.458Z,4.53
2018-06-19T05:25:40.116Z,7.80
2018-06-19T05:26:44.497Z,4.62
2018-06-19T05:27:50.470Z,4.08
2018-06-19T05:28:55.209Z,5.37
2018-06-19T05:30:00.557Z,4.85
2018-06-19T05:31:05.024Z,3.50
2018-06-19T05:32:09.463Z,4.75
2018-06-19T05:33:13.807Z,4.70
2018-06-19T05:34:18.514Z,5.10
2018-06-19T05:35:22.859Z,4.80
2018-06-19T05:36:27.272Z,5.03
2018-06-19T05:37:31.706Z,4.55
2018-06-19T05:38:36.117Z,5.67
2018-06-19T05:39:40.509Z,5.55
2018-06-19T05:40:44.923Z,4.58
2018-06-19T05:41:55.199Z,5.10
2018-06-19T05:42:59.944Z,4.80
2018-06-19T05:44:05.010Z,4.67
2018-06-19T05:45:09.418Z,5.58
2018-06-19T05:46:14.806Z,5.30
2018-06-19T05:47:19.167Z,5.10
2018-06-19T05:48:24.396Z,4.97
2018-06-19T05:49:29.323Z,5.55
2018-06-19T05:50:33.922Z,5.08
2018-06-19T05:51:38.301Z,5.50
2018-06-19T05:52:42.916Z,5.72
2018-06-19T05:53:48.058Z,4.90
2018-06-19T05:54:52.335Z,5.30
2018-06-19T05:55:56.829Z,5.42
2018-06-19T05:57:01.180Z,4.50
2018-06-19T05:58:05.970Z,5.60
2018-06-19T05:59:12.396Z,5.00
2018-06-19T06:00:17.912Z,6.10
2018-06-19T06:01:22.431Z,6.28
2018-06-19T06:02:26.948Z,5.35
2018-06-19T06:03:31.273Z,5.47
2018-06-19T06:04:36.400Z,5.17
2018-06-19T06:05:40.910Z,5.92
2018-06-19T06:06:45.867Z,5.15
2018-06-19T06:07:50.266Z,5.72
2018-06-19T06:08:54.832Z,5.03
2018-06-19T06:10:02.531Z,5.37
2018-06-19T06:11:09.247Z,4.45
2018-06-19T06:12:14.733Z,4.12
2018-06-19T06:13:19.222Z,5.12
2018-06-19T06:14:24.245Z,4.53
2018-06-19T06:15:30.883Z,5.75
2018-06-19T06:16:35.402Z,5.37
2018-06-19T06:17:40.385Z,4.90
2018-06-19T06:18:45.224Z,5.28
2018-06-19T06:19:50.769Z,4.15
2018-06-19T06:20:55.452Z,4.17
2018-06-19T06:22:00.190Z,4.50
2018-06-19T06:23:05.641Z,4.83
2018-06-19T06:24:10.421Z,4.95
2018-06-19T06:25:14.811Z,4.95
2018-06-19T06:26:19.559Z,5.22
2018-06-19T06:27:23.934Z,4.87
2018-06-19T06:28:28.525Z,5.30
2018-06-19T06:29:33.141Z,5.30
2018-06-19T06:30:37.880Z,4.75
2018-06-19T06:31:42.923Z,5.40
2018-06-19T06:32:48.890Z,5.00
2018-06-19T06:33:53.968Z,18.52
2018-06-19T06:34:58.365Z,8.10
2018-06-19T06:36:03.320Z,9.90
2018-06-19T06:37:09.698Z,6.42
2018-06-19T06:38:14.209Z,5.65
2018-06-19T06:39:18.850Z,5.45
2018-06-19T06:40:23.593Z,5.70
2018-06-19T06:41:28.032Z,5.97
2018-06-19T06:42:32.843Z,5.92
2018-06-19T06:43:37.306Z,6.53
2018-06-19T06:44:41.729Z,6.22
2018-06-19T06:45:46.309Z,5.60
2018-06-19T06:46:50.774Z,7.37
2018-06-19T06:47:55.666Z,5.47
2018-06-19T06:49:00.079Z,6.45
2018-06-19T06:50:04.549Z,6.33
2018-06-19T06:51:09.137Z,6.45
2018-06-19T06:52:13.547Z,6.08
2018-06-19T06:53:18.156Z,6.15
2018-06-19T06:54:22.692Z,5.83
2018-06-19T06:55:27.056Z,5.53
2018-06-19T06:56:31.430Z,6.37
2018-06-19T06:57:37.610Z,6.08
2018-06-19T06:58:42.288Z,6.53
2018-06-19T06:59:46.831Z,7.00
2018-06-19T07:00:51.346Z,6.90
2018-06-19T07:01:55.818Z,5.80
2018-06-19T07:03:00.211Z,8.63
2018-06-19T07:04:05.096Z,6.58
2018-06-19T07:05:09.452Z,6.20
2018-06-19T07:06:13.779Z,6.62
2018-06-19T07:07:18.467Z,5.87
2018-06-19T07:08:22.835Z,5.58
2018-06-19T07:09:27.210Z,6.95
2018-06-19T07:10:31.701Z,6.70
2018-06-19T07:11:36.270Z,6.42
2018-06-19T07:12:40.609Z,5.35
2018-06-19T07:13:44.929Z,5.67
2018-06-19T07:14:49.853Z,6.20
2018-06-19T07:15:54.226Z,6.72
2018-06-19T07:16:59.336Z,10.13
2018-06-19T07:18:04.825Z,6.60
2018-06-19T07:19:09.255Z,5.15
2018-06-19T07:20:13.841Z,6.60
2018-06-19T07:21:19.529Z,6.37
2018-06-19T07:22:23.943Z,6.83
2018-06-19T07:23:28.451Z,5.72
2018-06-19T07:24:34.628Z,5.70
2018-06-19T07:25:38.950Z,5.92
2018-06-19T07:26:44.497Z,6.40
2018-06-19T07:27:49.177Z,5.55
2018-06-19T07:28:53.867Z,5.67
2018-06-19T07:29:59.765Z,6.30
2018-06-19T07:31:04.542Z,6.95
2018-06-19T07:32:09.728Z,4.67
2018-06-19T07:33:15.450Z,6.90
2018-06-19T07:34:20.369Z,6.05
2018-06-19T07:35:25.204Z,8.40
2018-06-19T07:36:29.616Z,6.08
2018-06-19T07:37:34.877Z,5.75
2018-06-19T07:38:39.459Z,5.30
2018-06-19T07:39:44.059Z,6.10
2018-06-19T07:40:48.635Z,6.65
2018-06-19T07:41:53.320Z,5.70
2018-06-19T07:43:04.911Z,7.05
2018-06-19T07:44:10.564Z,6.10
2018-06-19T07:45:15.990Z,6.03
2018-06-19T07:46:21.688Z,6.00
2018-06-19T07:47:26.105Z,5.10
2018-06-19T07:48:30.408Z,5.90
2018-06-19T07:49:34.886Z,6.67
2018-06-19T07:50:55.791Z,5.80
2018-06-19T07:52:02.835Z,5.65
2018-06-19T07:53:09.803Z,6.00
2018-06-19T07:54:14.887Z,6.47
2018-06-19T07:55:19.242Z,6.20
2018-06-19T07:56:24.414Z,6.58
2018-06-19T07:57:28.767Z,6.00
2018-06-19T07:58:33.446Z,5.70
2018-06-19T07:59:38.108Z,5.80
2018-06-19T08:00:42.584Z,6.05
2018-06-19T08:01:49.451Z,5.40
2018-06-19T08:02:54.907Z,6.40
2018-06-19T08:03:59.246Z,6.28
2018-06-19T08:05:04.823Z,6.47
2018-06-19T08:06:09.652Z,6.25
2018-06-19T08:07:14.215Z,5.40
2018-06-19T08:08:19.716Z,6.42
2018-06-19T08:09:24.215Z,6.22
2018-06-19T08:10:28.932Z,6.40
2018-06-19T08:11:34.504Z,5.72
2018-06-19T08:12:40.881Z,6.42
2018-06-19T08:13:45.646Z,5.03
2018-06-19T08:14:50.139Z,5.37
2018-06-19T08:15:54.607Z,5.17
2018-06-19T08:17:01.583Z,5.55
2018-06-19T08:18:08.554Z,7.08
2018-06-19T08:19:13.163Z,7.15
2018-06-19T08:20:17.691Z,5.45
2018-06-19T08:21:22.685Z,6.35
2018-06-19T08:22:30.786Z,6.20
2018-06-19T08:23:37.993Z,6.05
2018-06-19T08:24:42.789Z,6.67
2018-06-19T08:25:47.871Z,6.53
2018-06-19T08:26:52.228Z,7.25
2018-06-19T08:28:02.270Z,7.10
2018-06-19T08:29:06.624Z,6.67
2018-06-19T08:30:11.353Z,6.72
2018-06-19T08:31:15.701Z,6.90
2018-06-19T08:32:20.513Z,6.60
2018-06-19T08:33:34.828Z,7.28
2018-06-19T08:34:39.295Z,7.17
2018-06-19T08:35:46.821Z,6.40
2018-06-19T08:36:51.329Z,6.87
2018-06-19T08:37:55.939Z,5.60
2018-06-19T08:39:00.437Z,7.03
2018-06-19T08:40:06.138Z,6.60
2018-06-19T08:41:11.655Z,7.03
2018-06-19T08:42:16.184Z,8.13
2018-06-19T08:43:21.117Z,8.98
2018-06-19T08:54:24.378Z,7.47
2018-06-19T08:55:30.198Z,8.33
2018-06-19T08:56:35.231Z,7.55
2018-06-19T08:57:40.322Z,8.20
2018-06-19T08:58:45.150Z,6.85
2018-06-19T08:59:50.093Z,8.75
2018-06-19T09:00:56.858Z,9.93
2018-06-19T09:02:03.742Z,6.75
2018-06-19T09:03:09.357Z,6.80
2018-06-19T09:04:13.953Z,7.28
2018-06-19T09:05:18.751Z,7.17
2018-06-19T09:06:23.207Z,6.65
2018-06-19T09:07:27.865Z,7.75
2018-06-19T09:08:32.696Z,7.35
2018-06-19T09:09:37.393Z,7.35
2018-06-19T09:10:42.150Z,7.12
2018-06-19T09:11:46.816Z,6.80
2018-06-19T09:12:51.411Z,7.80
2018-06-19T09:13:55.730Z,7.85
2018-06-19T09:15:00.147Z,7.50
2018-06-19T09:16:04.897Z,7.70
2018-06-19T09:17:10.433Z,7.75
2018-06-19T09:18:15.267Z,7.92
2018-06-19T09:19:19.920Z,8.55
2018-06-19T09:20:25.817Z,8.63
2018-06-19T09:21:30.697Z,8.40
2018-06-19T09:22:35.335Z,8.48
2018-06-19T09:23:39.968Z,8.70
2018-06-19T09:24:44.646Z,9.23
2018-06-19T09:25:49.611Z,9.40
2018-06-19T09:26:54.742Z,10.35
2018-06-19T09:27:59.302Z,10.48
2018-06-19T09:29:03.819Z,9.70
2018-06-19T09:30:08.888Z,9.33
2018-06-19T09:31:13.351Z,10.40
2018-06-19T09:32:19.088Z,9.43
2018-06-19T09:33:23.549Z,9.55
2018-06-19T09:34:28.596Z,9.45
2018-06-19T09:35:33.345Z,9.00
2018-06-19T09:36:38.395Z,9.95
2018-06-19T09:37:42.953Z,10.25
2018-06-19T09:38:48.422Z,9.65
2018-06-19T09:39:58.255Z,10.03
2018-06-19T09:41:04.167Z,9.30
2018-06-19T09:42:08.811Z,8.88
2018-06-19T09:43:13.636Z,9.68
2018-06-19T09:44:19.004Z,8.45
2018-06-19T09:45:23.740Z,9.10
2018-06-19T09:46:28.414Z,9.20
2018-06-19T09:47:32.830Z,8.78
2018-06-19T09:48:37.276Z,9.33
2018-06-19T09:49:42.948Z,8.58
2018-06-19T09:50:47.296Z,9.33
2018-06-19T09:51:51.895Z,9.20
2018-06-19T09:53:00.757Z,9.53
2018-06-19T09:54:05.419Z,10.45
2018-06-19T09:55:13.293Z,9.78
2018-06-19T09:56:18.677Z,8.95
2018-06-19T09:57:28.116Z,9.30
2018-06-19T09:58:36.312Z,8.75
2018-06-19T09:59:42.524Z,9.10
2018-06-19T10:00:49.025Z,8.80
2018-06-19T10:01:53.787Z,9.20
2018-06-19T10:02:59.067Z,9.45
2018-06-19T10:04:04.526Z,8.73
2018-06-19T10:05:08.971Z,10.13
2018-06-19T10:06:13.365Z,9.45
2018-06-19T10:07:22.206Z,10.60
2018-06-19T10:08:29.999Z,10.68
2018-06-19T10:09:35.040Z,9.75
2018-06-19T10:10:40.729Z,12.35
2018-06-19T10:11:46.683Z,11.60
2018-06-19T10:12:51.256Z,11.70
2018-06-19T10:13:55.647Z,12.00
2018-06-19T10:15:00.025Z,12.70
2018-06-19T10:16:04.499Z,11.85
2018-06-19T10:17:08.961Z,13.00
2018-06-19T10:18:26.003Z,11.50
2018-06-19T10:19:49.730Z,11.50
2018-06-19T10:20:54.858Z,11.70
2018-06-19T10:22:00.459Z,11.33
2018-06-19T10:23:04.956Z,11.50
2018-06-19T10:24:09.427Z,16.52
2018-06-19T10:25:14.292Z,17.02
2018-06-19T10:26:18.939Z,13.13
2018-06-19T10:27:23.321Z,11.20
2018-06-19T10:28:27.777Z,11.65
2018-06-19T10:29:33.555Z,15.50
2018-06-19T10:30:38.416Z,14.47
2018-06-19T10:31:46.442Z,13.48
2018-06-19T10:32:51.972Z,16.30
2018-06-19T10:34:02.062Z,13.62
2018-06-19T10:35:06.746Z,9.75
2018-06-19T10:36:11.874Z,10.48
2018-06-19T10:37:18.001Z,12.60
2018-06-19T10:38:22.366Z,12.68
2018-06-19T10:39:28.628Z,12.43
2018-06-19T10:40:33.483Z,11.35
2018-06-19T10:41:38.925Z,10.75
2018-06-19T10:42:43.624Z,12.47
2018-06-19T10:43:48.637Z,11.73
2018-06-19T10:44:53.024Z,12.75
2018-06-19T10:45:58.636Z,12.45
2018-06-19T10:47:04.447Z,13.05
2018-06-19T10:48:13.360Z,12.73
2018-06-19T10:49:18.339Z,11.93
2018-06-19T10:50:24.041Z,12.03
2018-06-19T10:51:30.811Z,12.18
2018-06-19T10:52:35.216Z,11.75
2018-06-19T10:53:41.414Z,11.85
2018-06-19T10:54:45.849Z,11.63
2018-06-19T10:55:52.899Z,12.05
2018-06-19T10:57:09.553Z,11.88
2018-06-19T10:58:14.113Z,10.23
2018-06-19T10:59:19.781Z,10.15
2018-06-19T11:00:26.455Z,10.43
2018-06-19T11:01:40.807Z,10.70
2018-06-19T11:02:47.019Z,10.53
2018-06-19T11:04:05.935Z,10.15
2018-06-19T11:05:11.150Z,10.20
2018-06-19T11:06:16.004Z,10.35
2018-06-19T11:07:24.940Z,10.93
2018-06-19T11:08:30.401Z,10.30
2018-06-19T11:09:37.074Z,12.25
2018-06-19T11:10:41.488Z,12.73
2018-06-19T11:11:46.107Z,12.05
2018-06-19T11:12:52.752Z,12.03
2018-06-19T11:13:59.170Z,12.55
2018-06-19T11:15:05.635Z,12.50
2018-06-19T11:16:11.608Z,12.18
2018-06-19T11:17:17.307Z,12.15
2018-06-19T11:18:22.247Z,12.80
2018-06-19T11:19:27.234Z,11.88
2018-06-19T11:20:35.735Z,13.45
2018-06-19T11:21:41.240Z,12.80
2018-06-19T11:22:46.504Z,9.90
2018-06-19T11:23:52.497Z,11.70
2018-06-19T11:24:57.311Z,11.03
2018-06-19T11:26:02.049Z,11.53
2018-06-19T11:27:07.234Z,11.83
2018-06-19T11:28:12.279Z,12.63
2018-06-19T11:29:16.779Z,11.60
2018-06-19T11:30:21.351Z,11.00
2018-06-19T11:31:26.794Z,11.50
2018-06-19T11:32:31.671Z,11.60
2018-06-19T11:33:36.260Z,12.73
2018-06-19T11:34:41.348Z,12.05
2018-06-19T11:35:45.793Z,12.20
2018-06-19T11:36:52.215Z,11.35
2018-06-19T11:37:57.596Z,10.60
2018-06-19T11:39:04.067Z,11.33
2018-06-19T11:40:12.863Z,11.93
2018-06-19T11:41:26.624Z,10.75
2018-06-19T11:42:34.790Z,11.45
2018-06-19T11:43:39.191Z,10.95
2018-06-19T11:44:46.910Z,10.45
2018-06-19T11:45:52.777Z,11.70
2018-06-19T11:46:58.618Z,11.33
2018-06-19T11:48:03.969Z,11.33
2018-06-19T11:49:09.447Z,11.68
2018-06-19T11:50:18.484Z,11.12
2018-06-19T11:51:24.540Z,11.03
2018-06-19T11:52:29.079Z,13.30
2018-06-19T11:53:37.032Z,11.78
2018-06-19T11:54:50.031Z,12.55
2018-06-19T11:56:00.038Z,12.25
2018-06-19T11:57:06.542Z,12.73
2018-06-19T11:58:11.344Z,12.53
2018-06-19T11:59:16.038Z,12.50
2018-06-19T12:00:20.708Z,11.18
2018-06-19T12:01:25.327Z,11.90
2018-06-19T12:02:30.838Z,11.78
2018-06-19T12:03:35.333Z,13.50
2018-06-19T12:04:44.426Z,13.48
2018-06-19T12:05:54.478Z,12.30
2018-06-19T12:07:00.959Z,11.60
2018-06-19T12:08:06.062Z,14.23
2018-06-19T12:09:11.723Z,13.88
2018-06-19T12:10:16.853Z,13.00
2018-06-19T12:11:21.334Z,13.40
2018-06-19T12:12:25.975Z,12.98
2018-06-19T12:13:30.805Z,13.45
2018-06-19T12:14:36.590Z,13.25
2018-06-19T12:15:41.547Z,13.03
2018-06-19T12:16:46.284Z,10.72
2018-06-19T12:17:50.829Z,9.08
2018-06-19T12:18:56.895Z,9.03
2018-06-19T12:20:04.737Z,9.45
2018-06-19T12:21:09.571Z,9.20
2018-06-19T12:22:14.063Z,9.65
2018-06-19T12:23:20.255Z,9.10
2018-06-19T12:24:25.112Z,7.58
2018-06-19T12:25:30.024Z,7.40
2018-06-19T12:26:34.844Z,8.43
2018-06-19T12:27:39.979Z,9.08
2018-06-19T12:28:45.772Z,8.60
2018-06-19T12:29:52.814Z,8.10
2018-06-19T12:30:59.301Z,7.97
2018-06-19T12:32:04.121Z,8.68
2018-06-19T12:33:09.210Z,7.75
2018-06-19T12:34:14.752Z,6.47
2018-06-19T12:35:22.353Z,6.33
2018-06-19T12:36:27.459Z,6.72
2018-06-19T12:37:32.379Z,7.12
2018-06-19T12:38:37.959Z,7.25
2018-06-19T12:39:44.009Z,7.42
2018-06-19T12:40:48.462Z,7.67
2018-06-19T12:41:56.675Z,6.50
2018-06-19T12:43:02.902Z,7.97
2018-06-19T12:44:08.725Z,7.92
2018-06-19T12:45:15.565Z,6.92
2018-06-19T12:46:22.522Z,8.20
2018-06-19T12:47:27.882Z,8.20
2018-06-19T12:48:35.007Z,10.70
2018-06-19T12:51:58.792Z,10.82
2018-06-19T12:53:16.430Z,8.13
2018-06-19T12:55:05.771Z,11.40
2018-06-19T12:56:17.996Z,10.55
2018-06-19T12:57:24.019Z,8.50
2018-06-19T12:58:32.870Z,7.55
2018-06-19T13:00:41.759Z,8.23
2018-06-19T13:01:46.499Z,7.15
2018-06-19T13:03:02.445Z,8.55
2018-06-19T13:04:19.895Z,7.12
2018-06-19T13:05:35.449Z,7.87
2018-06-19T13:06:45.010Z,6.92
2018-06-19T13:07:56.029Z,7.97
2018-06-19T13:09:01.295Z,9.55
2018-06-19T13:10:06.135Z,8.58
2018-06-19T13:11:11.872Z,7.33
2018-06-19T13:12:27.515Z,7.87
2018-06-19T13:13:43.411Z,7.37
2018-06-19T13:14:48.298Z,7.97
2018-06-19T13:15:57.151Z,8.00
2018-06-19T13:19:15.777Z,6.50
2018-06-19T13:20:32.323Z,6.37
2018-06-19T13:21:51.908Z,6.62
2018-06-19T13:22:59.259Z,7.08
2018-06-19T13:24:04.421Z,6.10
2018-06-19T13:25:30.554Z,6.15
2018-06-19T13:26:39.017Z,5.20
2018-06-19T13:27:44.471Z,6.90
2018-06-19T13:29:58.963Z,6.58
2018-06-19T13:31:14.459Z,5.70
2018-06-19T13:32:19.942Z,5.60
2018-06-19T13:33:27.112Z,5.97
2018-06-19T13:35:05.773Z,6.05
2018-06-19T13:36:28.952Z,6.90
2018-06-19T13:37:35.237Z,6.72
2018-06-19T13:38:40.902Z,7.17
2018-06-19T13:39:47.273Z,7.75
2018-06-19T13:41:09.527Z,6.22
2018-06-19T13:43:23.473Z,6.45
2018-06-19T13:44:38.830Z,6.12
2018-06-19T13:45:43.998Z,5.85
2018-06-19T13:46:51.210Z,6.80
2018-06-19T13:47:56.993Z,6.25
2018-06-19T13:49:03.136Z,7.12
2018-06-19T13:50:09.739Z,5.80
2018-06-19T13:51:14.368Z,5.05
2018-06-19T13:52:19.773Z,5.25
2018-06-19T13:53:24.745Z,4.80
2018-06-19T13:54:31.045Z,5.53
2018-06-19T13:56:14.329Z,5.92
2018-06-19T13:57:40.135Z,5.58
2018-06-19T13:58:46.716Z,5.40
2018-06-19T13:59:52.109Z,5.78
2018-06-19T14:01:01.359Z,5.40
2018-06-19T14:02:06.830Z,5.97
2018-06-19T14:03:11.445Z,6.65
2018-06-19T14:04:16.123Z,6.25
2018-06-19T14:05:21.296Z,6.17
2018-06-19T14:06:26.317Z,6.53
2018-06-19T14:08:01.546Z,6.75
2018-06-19T14:09:16.924Z,10.60
2018-06-19T14:10:32.312Z,7.85
2018-06-19T14:11:56.644Z,5.67
2018-06-19T14:13:02.279Z,6.25
2018-06-19T14:14:08.867Z,8.83
2018-06-19T14:15:14.954Z,5.87
2018-06-19T14:16:20.442Z,5.50
2018-06-19T14:17:27.299Z,5.28
2018-06-19T14:18:31.807Z,6.30
2018-06-19T14:19:38.894Z,5.92
2018-06-19T14:20:44.583Z,6.37
2018-06-19T14:21:50.085Z,6.12
2018-06-19T14:22:56.311Z,5.85
2018-06-19T14:24:01.293Z,6.78
2018-06-19T14:25:11.386Z,6.80
2018-06-19T14:26:20.250Z,7.20
2018-06-19T14:27:45.767Z,6.65
2018-06-19T14:29:01.043Z,5.45
2018-06-19T14:30:31.527Z,7.60
2018-06-19T14:31:39.946Z,7.97
2018-06-19T14:32:47.788Z,6.10
2018-06-19T14:33:54.422Z,6.53
2018-06-19T14:35:00.912Z,6.30
2018-06-19T14:36:14.573Z,6.50
2018-06-19T14:37:22.420Z,6.78
2018-06-19T14:38:29.471Z,6.95
2018-06-19T14:39:37.508Z,7.90
2018-06-19T14:40:43.788Z,7.15
2018-06-19T14:41:54.155Z,6.60
2018-06-19T14:42:59.137Z,6.50
2018-06-19T14:44:08.865Z,6.70
2018-06-19T14:45:14.898Z,6.05
2018-06-19T14:46:20.930Z,7.12
2018-06-19T14:54:38.270Z,6.03
2018-06-19T14:55:45.424Z,5.75
2018-06-19T14:56:53.711Z,5.67
2018-06-19T14:58:09.458Z,5.85
2018-06-19T14:59:18.990Z,5.45
2018-06-19T15:00:32.654Z,7.00
2018-06-19T15:01:49.983Z,6.17
2018-06-19T15:03:00.026Z,5.92